Austin, Utah
Current Conditions -  °F | °C
As of 8:52 AM on Tuesday 21 Oct 2014 (Local Time) from KMLF Reporting Station
Clear Clear  
Wind Chill: 57°   Ceiling: Unl
Heat Index: 57°   Visibility: 10mi
Dew Point: 40°   Wind: 14mph
Humidity: 53%   Direction: 210°SSW
Pressure: 30.01"   Gusts: NA
Location:  38.6125°N, 112.081°W
Report Text: KMLF 211452Z AUTO 21012KT 10SM CLR 14/04 A3001 RMK AO2 SLP117 T01390044 51010 TSNO
Loading
Personal Weather Stations






























Interactive Weather Map
Tropical Storm Tracking
New forecast layout! Learn more

10-Day Weather Forecast

Advertisements
Track Severe Weather on mobile